Skip Navigation LinksHome page > Weather > Current weather Skip Navigation Links

Current Weather

Indira Gandhi Intl Apt, New Delhi, India

For information only: do not use for flight planning or navigation.
Latest weather
Observation time Tuesday, October 25, 2016 1:30 PM IST
Local time Tuesday, October 25, 2016 1:51 PM IST
Flight conditions Marginal Visual Meteorological Conditions
Wind direction West-Northwest (300°)
Wind speed 12 mph
Visibility 3.1 mi.
Present weather haze
Sky condition
Ceiling unlimited
Temperature 90°F
Dewpoint 55°F
Altimeter 29.83 in.Hg
Derived measurements
Relative humidity 32%
Heat index 90°F
Density altitude 3024 ft.
No significant changes expected in the next two hours.
METAR VIDP 250800Z 30010KT 5000 HZ NSC 32/13 Q1010 NOSIG


Location code

InnerDrive.Weather 4.0.5722.1 Release CLR 4.0.30319.34209
Copyright ©2015 Inner Drive Technology. All rights reserved. Portions Copyright ©1986-2015 David Braverman.

Find weather

Site navigation

Skip Navigation Links

Place info

Page info

PayPal - The safer, easier way to pay online!

Return home.

Copyright ©2016 Inner Drive Technology. Purveyors of fine, hand-crafted computer software. Page printed 2016-10-25T08:21:57 UTC.